Time;durP1;ratioP1;P1;durP2;ratioP2;P2;SDS_P1;SDS_P2;PMS_P1;PMS_P2;Temp;Humidity;BMP_temperature;BMP_pressure;BME280_temperature;BME280_humidity;BME280_pressure;Samples;Min_cycle;Max_cycle;Signal;HPM_P1;HPM_P2
2021/08/04 00:01:10;;;;;;;3.10;2.57;;;;;;;14.81;100.00;100525.84;5024146;28;20224;-72
2021/08/04 00:03:37;;;;;;;3.43;2.30;;;;;;;14.77;100.00;100530.38;5024079;28;20205;-73
2021/08/04 00:06:04;;;;;;;2.60;2.17;;;;;;;14.75;100.00;100532.19;5025683;28;20565;-73
2021/08/04 00:08:30;;;;;;;2.83;2.53;;;;;;;14.77;100.00;100529.50;5023730;28;20297;-73
2021/08/04 00:10:56;;;;;;;3.47;2.60;;;;;;;14.77;100.00;100525.13;5021610;28;20194;-73
2021/08/04 00:13:24;;;;;;;2.97;2.50;;;;;;;14.75;100.00;100529.56;5021639;28;20230;-73
2021/08/04 00:15:51;;;;;;;2.73;2.40;;;;;;;14.70;100.00;100522.84;5026109;28;20565;-72
2021/08/04 00:18:18;;;;;;;4.10;2.60;;;;;;;14.66;100.00;100531.78;5028299;28;20222;-73
2021/08/04 00:24:30;;;;;;;4.57;2.30;;;;;;;14.69;100.00;100519.38;5022599;28;20295;-73
2021/08/04 00:26:57;;;;;;;3.73;2.90;;;;;;;14.62;100.00;100519.72;5020421;28;20859;-72
2021/08/04 00:29:24;;;;;;;2.73;2.53;;;;;;;14.60;100.00;100508.41;5025292;28;20241;-74
2021/08/04 00:31:51;;;;;;;2.83;2.47;;;;;;;14.69;100.00;100508.03;5027197;28;20221;-73
2021/08/04 00:34:18;;;;;;;3.00;2.70;;;;;;;14.70;100.00;100507.09;5026550;28;20582;-72
2021/08/04 00:36:45;;;;;;;3.47;2.50;;;;;;;14.53;100.00;100508.69;5008237;28;20322;-74
2021/08/04 00:39:12;;;;;;;2.77;2.50;;;;;;;14.52;100.00;100509.59;5003877;28;20237;-74
2021/08/04 00:41:39;;;;;;;3.00;2.70;;;;;;;14.42;100.00;100505.66;5015855;28;20326;-72
2021/08/04 00:44:06;;;;;;;4.53;3.20;;;;;;;14.33;100.00;100509.53;5010603;28;20209;-74
2021/08/04 00:46:40;;;;;;;3.30;2.60;;;;;;;14.27;100.00;100504.56;5013537;28;20656;-73
2021/08/04 00:49:07;;;;;;;2.97;2.57;;;;;;;14.24;100.00;100504.69;5026740;28;20208;-71
2021/08/04 00:51:34;;;;;;;4.17;2.90;;;;;;;14.28;100.00;100501.03;5027502;28;20227;-74
2021/08/04 00:54:04;;;;;;;3.70;2.40;;;;;;;14.28;100.00;100500.16;5008049;28;20408;-73
2021/08/04 00:56:31;;;;;;;2.60;2.40;;;;;;;14.20;100.00;100505.75;5028767;28;20203;-74
2021/08/04 00:58:57;;;;;;;3.23;2.93;;;;;;;14.02;100.00;100513.50;5009795;28;21340;-74
2021/08/04 01:01:28;;;;;;;3.10;2.80;;;;;;;13.92;100.00;100509.53;5012947;28;20231;-73
2021/08/04 01:04:02;;;;;;;3.03;2.67;;;;;;;14.01;100.00;100506.53;5027446;28;20291;-74
2021/08/04 01:06:36;;;;;;;2.97;2.60;;;;;;;14.00;100.00;100496.97;5010918;28;20295;-73
2021/08/04 01:09:04;;;;;;;2.63;2.43;;;;;;;13.93;100.00;100502.53;5015893;28;20615;-74
2021/08/04 01:11:34;;;;;;;2.80;2.60;;;;;;;13.85;100.00;100500.25;5032815;28;20215;-73
2021/08/04 01:14:05;;;;;;;3.70;2.87;;;;;;;13.82;100.00;100502.97;5015456;28;20226;-74
2021/08/04 01:16:37;;;;;;;4.47;3.00;;;;;;;13.77;100.00;100507.56;5034102;28;20204;-72
2021/08/04 01:19:12;;;;;;;4.30;2.80;;;;;;;13.68;100.00;100506.16;5008545;28;20335;-74
2021/08/04 01:21:42;;;;;;;3.57;2.60;;;;;;;13.68;100.00;100503.53;5026040;28;20320;-74
2021/08/04 01:24:16;;;;;;;3.07;2.70;;;;;;;13.64;100.00;100505.44;5005805;28;20214;-74
2021/08/04 01:26:46;;;;;;;2.93;2.63;;;;;;;13.55;100.00;100507.59;5011273;28;20226;-74
2021/08/04 01:29:15;;;;;;;3.30;3.00;;;;;;;13.51;100.00;100506.00;5031217;28;20208;-73
2021/08/04 01:31:44;;;;;;;3.23;2.77;;;;;;;13.54;100.00;100505.88;5017216;28;20223;-73
2021/08/04 01:34:11;;;;;;;3.87;2.90;;;;;;;13.59;100.00;100499.53;5024921;28;20214;-74
2021/08/04 01:36:39;;;;;;;5.20;3.27;;;;;;;13.57;100.00;100508.38;5027823;28;20203;-73
2021/08/04 01:39:06;;;;;;;3.70;3.00;;;;;;;13.61;100.00;100516.06;5004283;28;20626;-74
2021/08/04 01:41:35;;;;;;;3.07;2.77;;;;;;;13.55;100.00;100512.84;5016870;28;20776;-73
2021/08/04 01:44:04;;;;;;;3.30;3.00;;;;;;;13.61;100.00;100505.59;5013486;28;20527;-74
2021/08/04 01:46:31;;;;;;;3.67;3.20;;;;;;;13.70;100.00;100506.97;5023826;28;20232;-74
2021/08/04 01:49:01;;;;;;;3.77;3.07;;;;;;;13.67;100.00;100503.59;5033495;28;20611;-73
2021/08/04 01:51:29;;;;;;;3.67;3.37;;;;;;;13.58;100.00;100503.09;5027606;28;20496;-72
2021/08/04 01:53:56;;;;;;;3.80;3.40;;;;;;;13.57;100.00;100496.13;5012329;28;20429;-74
2021/08/04 01:56:23;;;;;;;3.97;3.57;;;;;;;13.65;100.00;100501.06;5007502;28;20238;-74
2021/08/04 01:58:49;;;;;;;4.27;3.20;;;;;;;13.65;100.00;100501.06;5009918;28;20227;-73
2021/08/04 02:01:18;;;;;;;5.60;3.60;;;;;;;13.63;100.00;100498.50;5006459;28;20216;-72
2021/08/04 02:03:45;;;;;;;3.83;3.47;;;;;;;13.70;100.00;100500.88;5006565;28;20566;-72
2021/08/04 02:06:20;;;;;;;3.27;2.93;;;;;;;13.72;100.00;100501.66;5008961;28;20204;-72
2021/08/04 02:08:56;;;;;;;3.37;3.07;;;;;;;13.77;100.00;100499.69;5010333;28;20237;-72
2021/08/04 02:11:28;;;;;;;3.63;3.10;;;;;;;13.76;100.00;100493.59;5025227;28;20218;-73
2021/08/04 02:14:02;;;;;;;4.10;3.37;;;;;;;13.69;100.00;100496.56;5003180;28;20215;-72
2021/08/04 02:16:46;;;;;;;4.43;3.33;;;;;;;13.75;100.00;100496.28;5007539;28;20207;-72
2021/08/04 02:19:41;;;;;;;;;;;;;;;;;;;;;
2021/08/04 02:22:24;;;;;;;5.73;3.30;;;;;;;13.76;100.00;100504.09;5000838;28;20231;-73
2021/08/04 02:25:05;;;;;;;4.37;3.33;;;;;;;13.69;100.00;100500.03;5002994;28;20227;-72
2021/08/04 02:27:40;;;;;;;5.43;3.47;;;;;;;13.73;100.00;100509.44;5004081;28;20424;-72
2021/08/04 02:30:15;;;;;;;3.67;3.30;;;;;;;13.70;100.00;100504.38;4995352;28;20203;-73
2021/08/04 02:33:12;;;;;;;3.27;2.97;;;;;;;13.67;100.00;100509.72;5023541;28;20269;-73
2021/08/04 02:35:53;;;;;;;3.53;3.23;;;;;;;13.76;100.00;100518.97;5017922;28;20222;-72
2021/08/04 02:38:27;;;;;;;3.30;2.93;;;;;;;13.66;100.00;100515.00;5002312;28;20211;-73
2021/08/04 02:41:13;;;;;;;3.80;3.27;;;;;;;13.67;100.00;100524.56;4999966;28;20280;-73
2021/08/04 02:43:43;;;;;;;3.50;2.70;;;;;;;13.63;100.00;100515.97;5005812;28;20206;-73
2021/08/04 02:46:14;;;;;;;3.87;3.00;;;;;;;13.59;100.00;100511.78;5009068;28;20214;-72
2021/08/04 02:48:45;;;;;;;4.97;3.20;;;;;;;13.61;100.00;100508.22;5006291;28;20200;-72
2021/08/04 02:51:22;;;;;;;4.40;3.30;;;;;;;13.68;100.00;100500.91;5000386;28;20206;-73
2021/08/04 02:53:57;;;;;;;5.10;3.50;;;;;;;13.64;100.00;100500.19;5028889;28;20271;-72
2021/08/04 02:56:25;;;;;;;3.43;3.13;;;;;;;13.69;100.00;100507.03;5004383;28;20227;-72
2021/08/04 02:58:53;;;;;;;3.93;3.30;;;;;;;13.70;100.00;100511.34;5009090;28;20212;-72
2021/08/04 03:01:22;;;;;;;3.70;3.13;;;;;;;13.67;100.00;100508.84;5008585;28;20483;-72
2021/08/04 03:04:02;;;;;;;3.40;2.90;;;;;;;13.64;100.00;100497.59;5004476;28;20327;-72
2021/08/04 03:06:33;;;;;;;3.20;2.90;;;;;;;13.55;100.00;100510.22;5019326;28;20294;-72
2021/08/04 03:09:00;;;;;;;3.23;2.93;;;;;;;13.56;100.00;100515.41;5006845;28;20215;-72
2021/08/04 03:11:27;;;;;;;3.53;3.10;;;;;;;13.52;100.00;100521.66;5008897;28;20221;-73
2021/08/04 03:13:53;;;;;;;3.47;2.97;;;;;;;13.46;100.00;100521.06;5005064;28;20209;-73
2021/08/04 03:16:19;;;;;;;4.37;3.03;;;;;;;13.41;100.00;100511.59;5005304;28;20208;-72
2021/08/04 03:18:46;;;;;;;3.80;3.10;;;;;;;13.36;100.00;100521.41;5005934;28;20267;-72
2021/08/04 03:21:14;;;;;;;3.63;3.10;;;;;;;13.37;100.00;100527.53;5023236;28;20708;-72
2021/08/04 03:23:40;;;;;;;3.00;2.70;;;;;;;13.31;100.00;100525.09;5024286;28;20293;-72
2021/08/04 03:26:07;;;;;;;3.33;2.70;;;;;;;13.33;100.00;100520.69;5024387;28;20204;-75
2021/08/04 03:28:33;;;;;;;3.53;3.00;;;;;;;13.31;100.00;100523.34;5022029;28;20197;-74
2021/08/04 03:31:00;;;;;;;3.50;3.20;;;;;;;13.34;100.00;100520.63;5032952;28;20197;-75
2021/08/04 03:33:26;;;;;;;4.00;3.00;;;;;;;13.39;100.00;100513.44;5024259;28;20283;-74
2021/08/04 03:35:53;;;;;;;3.57;3.27;;;;;;;13.50;100.00;100512.16;5014197;28;20228;-75
2021/08/04 03:38:20;;;;;;;4.07;3.67;;;;;;;13.46;100.00;100514.06;5021584;28;20201;-74
2021/08/04 03:40:47;;;;;;;4.10;3.47;;;;;;;13.30;100.00;100521.63;5024676;28;20214;-75
2021/08/04 03:43:16;;;;;;;4.97;3.37;;;;;;;13.20;100.00;100520.28;5026793;28;20290;-74
2021/08/04 03:45:54;;;;;;;7.63;3.20;;;;;;;13.18;100.00;100517.72;5027295;28;20281;-75
2021/08/04 03:48:30;;;;;;;3.70;3.30;;;;;;;13.15;100.00;100517.81;5019320;28;20290;-75
2021/08/04 03:51:03;;;;;;;4.20;3.03;;;;;;;13.18;100.00;100514.25;5017960;28;21420;-74
2021/08/04 03:53:40;;;;;;;3.67;3.03;;;;;;;13.18;100.00;100516.88;5015843;28;20726;-74
2021/08/04 03:56:08;;;;;;;4.07;3.03;;;;;;;13.10;100.00;100517.16;5024142;28;20206;-75
2021/08/04 03:58:40;;;;;;;3.20;2.90;;;;;;;13.03;100.00;100515.69;5006758;28;20726;-72
2021/08/04 04:01:24;;;;;;;4.03;3.43;;;;;;;13.09;100.00;100515.47;5009625;28;20211;-72
2021/08/04 04:03:59;;;;;;;4.23;3.70;;;;;;;13.15;100.00;100515.22;5019624;28;20235;-75
2021/08/04 04:06:37;;;;;;;4.03;3.37;;;;;;;13.08;100.00;100514.59;5024315;28;20210;-75
2021/08/04 04:09:30;;;;;;;3.77;3.30;;;;;;;13.04;100.00;100510.38;5008007;28;20234;-74
2021/08/04 04:12:04;;;;;;;3.70;3.40;;;;;;;13.18;100.00;100512.47;5025440;28;20219;-71
2021/08/04 04:14:50;;;;;;;3.80;3.23;;;;;;;13.32;100.00;100511.97;5009594;28;20466;-72
2021/08/04 04:17:27;;;;;;;4.43;3.60;;;;;;;13.46;100.00;100516.69;5018935;28;20201;-72
2021/08/04 04:20:05;;;;;;;4.20;3.50;;;;;;;13.49;100.00;100508.69;5027795;28;20206;-72
2021/08/04 04:22:43;;;;;;;5.07;3.70;;;;;;;13.53;100.00;100515.50;5031906;28;20229;-72
2021/08/04 04:25:23;;;;;;;4.27;3.70;;;;;;;13.74;100.00;100511.16;5019583;28;20302;-72
2021/08/04 04:28:08;;;;;;;4.63;3.90;;;;;;;13.89;100.00;100511.44;5025187;28;20241;-72
2021/08/04 04:30:59;;;;;;;4.50;3.63;;;;;;;14.00;100.00;100515.34;5024583;28;20227;-72
2021/08/04 04:33:32;;;;;;;5.33;4.37;;;;;;;13.98;100.00;100514.53;4998515;28;20197;-73
2021/08/04 04:36:10;;;;;;;5.83;4.10;;;;;;;13.99;100.00;100515.38;5014460;28;20255;-72
2021/08/04 04:38:49;;;;;;;5.33;3.40;;;;;;;13.99;100.00;100515.38;5024699;28;20212;-72
2021/08/04 04:41:28;;;;;;;4.60;4.10;;;;;;;13.97;100.00;100511.97;5000488;28;20302;-73
2021/08/04 04:44:14;;;;;;;4.23;3.63;;;;;;;14.04;100.00;100528.31;5023815;28;20221;-72
2021/08/04 04:47:06;;;;;;;9.13;4.20;;;;;;;14.07;100.00;100522.91;5032343;28;20923;-72
2021/08/04 04:49:46;;;;;;;4.30;3.53;;;;;;;14.12;100.00;100521.81;5022187;28;20625;-72
2021/08/04 04:52:22;;;;;;;4.20;3.80;;;;;;;14.12;100.00;100519.19;5025988;28;20224;-72
2021/08/04 04:55:07;;;;;;;3.83;3.47;;;;;;;14.16;100.00;100520.78;5021641;28;20529;-72
2021/08/04 04:57:41;;;;;;;4.73;3.90;;;;;;;14.20;100.00;100519.72;4999968;28;20209;-72
2021/08/04 05:00:24;;;;;;;4.53;3.80;;;;;;;14.32;100.00;100517.50;5004950;28;20270;-72
2021/08/04 05:03:00;;;;;;;4.67;3.93;;;;;;;14.51;100.00;100530.63;5029034;28;20762;-72
2021/08/04 05:05:47;;;;;;;4.60;3.67;;;;;;;14.55;100.00;100526.97;5028404;28;20313;-72
2021/08/04 05:08:25;;;;;;;4.47;3.80;;;;;;;14.67;100.00;100536.09;5023683;28;20216;-72
2021/08/04 05:11:07;;;;;;;4.33;3.40;;;;;;;14.61;100.00;100531.97;5018420;28;20254;-72
2021/08/04 05:13:39;;;;;;;5.70;4.10;;;;;;;14.51;100.00;100536.75;5035115;28;20215;-72
2021/08/04 05:16:15;;;;;;;4.20;3.60;;;;;;;14.60;100.00;100542.53;5006041;28;20216;-73
2021/08/04 05:18:52;;;;;;;5.40;3.77;;;;;;;14.81;100.00;100538.09;5008999;28;20636;-72
2021/08/04 05:21:26;;;;;;;4.30;3.90;;;;;;;14.84;100.00;100536.19;5009017;28;20317;-72
2021/08/04 05:24:18;;;;;;;5.33;4.17;;;;;;;14.98;100.00;100535.56;5015110;28;20312;-72
2021/08/04 05:27:13;;;;;;;6.63;4.50;;;;;;;15.03;100.00;100535.34;5003205;28;20686;-72
2021/08/04 05:29:58;;;;;;;4.70;4.20;;;;;;;15.16;100.00;100539.09;5008630;28;20220;-73
2021/08/04 05:32:50;;;;;;;4.63;4.10;;;;;;;15.31;100.00;100545.44;5006668;28;20563;-72
2021/08/04 05:35:26;;;;;;;5.60;4.83;;;;;;;15.41;100.00;100553.72;5032239;28;20215;-72
2021/08/04 05:38:08;;;;;;;5.10;4.50;;;;;;;15.50;100.00;100550.66;5030559;28;20270;-72
2021/08/04 05:40:40;;;;;;;7.90;4.70;;;;;;;15.59;100.00;100546.75;5019098;28;20225;-72
2021/08/04 05:43:09;;;;;;;5.57;4.63;;;;;;;15.65;100.00;100544.66;5024780;28;20557;-72
2021/08/04 05:46:00;;;;;;;5.07;4.23;;;;;;;15.75;100.00;100545.09;5026886;28;20547;-72
2021/08/04 05:48:44;;;;;;;4.77;4.23;;;;;;;15.87;100.00;100548.91;5034408;28;20604;-72
2021/08/04 05:52:08;;;;;;;8.60;4.50;;;;;;;15.81;100.00;100557.09;5026227;28;20686;-72
2021/08/04 05:54:45;;;;;;;4.40;4.00;;;;;;;15.97;100.00;100552.78;4959617;28;20212;-72
2021/08/04 05:57:28;;;;;;;4.70;4.00;;;;;;;15.94;100.00;100552.09;5035115;28;20559;-73
2021/08/04 06:00:30;;;;;;;6.23;3.77;;;;;;;16.05;100.00;100557.66;5021292;28;20614;-72
2021/08/04 06:03:19;;;;;;;5.03;3.83;;;;;;;16.13;100.00;100562.53;5027958;28;20287;-73
2021/08/04 06:06:11;;;;;;;4.40;3.80;;;;;;;16.25;100.00;100561.91;5026699;28;20334;-72
2021/08/04 06:09:31;;;;;;;3.90;3.50;;;;;;;16.32;100.00;100570.34;5023698;28;20580;-72
2021/08/04 06:12:00;;;;;;;4.43;3.23;;;;;;;16.31;98.39;100573.91;5021403;28;20581;-73
2021/08/04 06:14:47;;;;;;;3.97;3.50;;;;;;;16.38;99.70;100573.50;5017538;28;20207;-72
2021/08/04 06:17:28;;;;;;;4.27;3.43;;;;;;;16.44;100.00;100577.59;5023024;28;20582;-73
2021/08/04 06:19:58;;;;;;;3.40;3.07;;;;;;;16.58;100.00;100577.72;5030085;28;20282;-73
2021/08/04 06:22:33;;;;;;;4.67;3.67;;;;;;;16.74;100.00;100571.69;5009101;28;20309;-72
2021/08/04 06:25:00;;;;;;;3.63;3.30;;;;;;;16.71;98.42;100585.88;5021473;28;20700;-73
2021/08/04 06:27:45;;;;;;;4.20;3.73;;;;;;;16.79;97.91;100585.44;5020485;28;20670;-73
2021/08/04 06:30:21;;;;;;;4.10;3.27;;;;;;;16.80;97.39;100585.38;5015644;28;20570;-72
2021/08/04 06:32:57;;;;;;;4.37;3.50;;;;;;;16.93;96.23;100582.13;5022180;28;20902;-73
2021/08/04 06:35:32;;;;;;;4.07;3.10;;;;;;;17.08;94.89;100581.31;5019016;28;20217;-73
2021/08/04 06:38:01;;;;;;;3.83;3.10;;;;;;;17.15;94.49;100587.06;5023708;28;20203;-71
2021/08/04 06:40:40;;;;;;;5.80;3.10;;;;;;;17.23;94.21;100583.09;5023130;28;20254;-72
2021/08/04 06:43:15;;;;;;;4.50;3.60;;;;;;;17.28;91.67;100596.03;5027130;28;20714;-72
2021/08/04 06:45:59;;;;;;;4.33;3.90;;;;;;;17.35;91.19;100583.38;5029213;28;20287;-72
2021/08/04 06:48:35;;;;;;;4.63;3.13;;;;;;;17.55;90.29;100585.75;5020524;28;20311;-72
2021/08/04 06:51:16;;;;;;;3.10;2.77;;;;;;;17.71;91.59;100580.47;5022374;28;20211;-72
2021/08/04 06:54:13;;;;;;;3.47;3.17;;;;;;;17.87;91.73;100580.47;5018488;28;20669;-72
2021/08/04 06:56:39;;;;;;;3.47;3.17;;;;;;;17.91;88.04;100582.00;5019912;28;20200;-74
2021/08/04 06:59:06;;;;;;;3.90;3.40;;;;;;;18.07;89.14;100584.59;5032827;28;20210;-73
2021/08/04 07:01:32;;;;;;;4.80;3.30;;;;;;;18.11;86.78;100582.63;5034385;28;20541;-75
2021/08/04 07:03:59;;;;;;;3.80;3.50;;;;;;;18.13;86.34;100591.28;5032652;28;20227;-72
2021/08/04 07:06:26;;;;;;;6.03;3.80;;;;;;;18.19;85.29;100588.31;5032162;28;20620;-73
2021/08/04 07:08:53;;;;;;;3.43;3.13;;;;;;;18.32;83.98;100591.06;5031232;28;20208;-71
2021/08/04 07:11:22;;;;;;;5.23;3.40;;;;;;;18.39;82.87;100588.91;5011564;28;20200;-74
2021/08/04 07:13:49;;;;;;;3.40;3.10;;;;;;;18.44;82.93;100594.78;5028607;28;20199;-72
2021/08/04 07:16:17;;;;;;;4.63;3.30;;;;;;;18.44;82.88;100592.97;5032654;28;20196;-73
2021/08/04 07:18:44;;;;;;;3.93;3.30;;;;;;;18.40;82.11;100586.19;5034677;28;20210;-73
2021/08/04 07:21:11;;;;;;;3.90;3.50;;;;;;;18.45;81.98;100588.53;5031295;28;20258;-74
2021/08/04 07:23:39;;;;;;;3.90;3.30;;;;;;;18.68;82.85;100588.03;5029420;28;20219;-72
2021/08/04 07:26:05;;;;;;;3.00;2.57;;;;;;;18.95;81.92;100592.59;5013302;28;20271;-71
2021/08/04 07:28:32;;;;;;;3.33;2.77;;;;;;;19.33;80.42;100599.94;5025730;28;20212;-72
2021/08/04 07:30:58;;;;;;;3.10;2.80;;;;;;;19.66;82.27;100598.69;5023349;28;20200;-73
2021/08/04 07:33:25;;;;;;;3.93;2.77;;;;;;;19.74;77.93;100609.66;5031143;28;20223;-71
2021/08/04 07:35:51;;;;;;;3.13;2.83;;;;;;;19.79;78.56;100609.38;5033163;28;20206;-74
2021/08/04 07:38:17;;;;;;;3.70;2.67;;;;;;;19.64;79.92;100617.31;5035267;28;20201;-73
2021/08/04 07:40:45;;;;;;;2.90;2.60;;;;;;;19.63;78.34;100604.19;5025785;28;20294;-74
2021/08/04 07:43:12;;;;;;;3.10;2.80;;;;;;;19.60;77.87;100604.41;5025934;28;20232;-71
2021/08/04 07:45:38;;;;;;;2.87;2.63;;;;;;;19.65;78.63;100605.78;5036599;28;20199;-72
2021/08/04 07:48:05;;;;;;;2.73;2.50;;;;;;;19.67;78.28;100610.97;5028105;28;20196;-74
2021/08/04 07:50:32;;;;;;;2.93;2.70;;;;;;;19.72;79.58;100598.31;5031437;28;20299;-74
2021/08/04 07:52:58;;;;;;;3.53;2.90;;;;;;;19.78;78.46;100595.28;5030193;28;20214;-73
2021/08/04 07:55:27;;;;;;;2.97;2.67;;;;;;;19.79;76.57;100602.28;5032229;28;20212;-74
2021/08/04 07:57:55;;;;;;;3.30;2.87;;;;;;;19.76;75.33;100609.56;5028701;28;20560;-73
2021/08/04 08:00:21;;;;;;;4.60;3.00;;;;;;;19.90;75.08;100611.31;5010235;28;20213;-73
2021/08/04 08:02:47;;;;;;;3.10;2.80;;;;;;;20.18;75.80;100608.53;5031814;28;20221;-73
2021/08/04 08:05:14;;;;;;;3.17;2.73;;;;;;;20.51;72.33;100612.53;5034218;28;20215;-72
2021/08/04 08:07:45;;;;;;;3.07;2.77;;;;;;;20.78;73.91;100606.31;5030892;28;20200;-73
2021/08/04 08:10:12;;;;;;;3.00;2.70;;;;;;;21.03;72.51;100612.53;5029824;28;20281;-72
2021/08/04 08:12:38;;;;;;;2.57;2.27;;;;;;;21.01;67.19;100628.56;5030802;28;20220;-74
2021/08/04 08:15:07;;;;;;;3.10;1.97;;;;;;;21.29;67.15;100622.16;5026588;28;20314;-73
2021/08/04 08:17:33;;;;;;;2.70;2.50;;;;;;;21.45;69.74;100621.91;5028484;28;20693;-74
2021/08/04 08:20:00;;;;;;;3.67;2.67;;;;;;;21.18;69.63;100611.47;5008762;28;20307;-73
2021/08/04 08:22:26;;;;;;;2.87;2.40;;;;;;;20.99;67.77;100618.06;5039169;28;20226;-73
2021/08/04 08:24:53;;;;;;;2.50;2.30;;;;;;;21.04;68.74;100623.03;5024755;28;20290;-73
2021/08/04 08:27:19;;;;;;;3.17;2.97;;;;;;;20.99;66.65;100623.34;5025483;28;20204;-72
2021/08/04 08:29:45;;;;;;;3.77;3.00;;;;;;;21.03;67.23;100616.03;5023784;28;20216;-72
2021/08/04 08:32:13;;;;;;;2.63;2.42;;;;;;;20.92;67.15;100616.78;5036118;28;20224;-72
2021/08/04 08:34:40;;;;;;;2.60;2.40;;;;;;;21.08;70.06;100613.91;5031424;28;20207;-73
2021/08/04 08:37:06;;;;;;;2.58;2.38;;;;;;;21.16;66.85;100616.03;5019750;28;20208;-73
2021/08/04 08:39:33;;;;;;;2.70;2.50;;;;;;;21.30;67.07;100618.56;5031231;28;20222;-73
2021/08/04 08:42:00;;;;;;;2.53;2.33;;;;;;;21.43;68.05;100607.06;5030398;28;20417;-74
2021/08/04 08:44:26;;;;;;;2.88;2.65;;;;;;;21.57;65.26;100620.19;5026177;28;20264;-73
2021/08/04 08:46:53;;;;;;;2.77;2.57;;;;;;;21.64;65.79;100610.84;5019835;28;20211;-74
2021/08/04 08:49:27;;;;;;;2.80;2.60;;;;;;;21.73;63.49;100619.94;5019077;28;20227;-72
2021/08/04 08:51:54;;;;;;;2.60;2.17;;;;;;;21.96;61.71;100612.94;5022261;28;20380;-73
2021/08/04 08:54:21;;;;;;;2.33;2.13;;;;;;;22.26;62.12;100615.09;5027682;28;20676;-74
2021/08/04 08:56:47;;;;;;;3.35;2.28;;;;;;;22.36;60.41;100623.25;5035489;28;20624;-73
2021/08/04 08:59:15;;;;;;;3.20;2.90;;;;;;;22.54;63.99;100610.38;5031499;28;20276;-72
2021/08/04 09:01:42;;;;;;;3.17;2.83;;;;;;;22.35;62.41;100610.09;5026756;28;20265;-74
2021/08/04 09:04:11;;;;;;;3.20;2.70;;;;;;;22.65;63.36;100602.41;5020293;28;20226;-72
2021/08/04 09:06:48;;;;;;;2.60;2.40;;;;;;;23.03;62.77;100606.56;5023129;28;20223;-72
2021/08/04 09:09:19;;;;;;;4.05;2.20;;;;;;;23.37;60.70;100601.22;5027374;28;20234;-71
2021/08/04 09:11:50;;;;;;;2.30;2.10;;;;;;;23.48;58.43;100607.50;5023574;28;20290;-72
2021/08/04 09:14:16;;;;;;;2.50;2.28;;;;;;;23.41;58.34;100604.47;5022631;28;20195;-74
2021/08/04 09:16:44;;;;;;;2.50;2.30;;;;;;;23.49;58.62;100604.72;5026734;28;20216;-74
2021/08/04 09:19:21;;;;;;;2.90;2.40;;;;;;;23.35;56.39;100605.81;5030012;28;20275;-75
2021/08/04 09:22:11;;;;;;;2.92;2.58;;;;;;;23.33;55.21;100613.09;5027889;28;20619;-73
2021/08/04 09:25:03;;;;;;;2.42;2.20;;;;;;;23.25;56.57;100608.41;5005892;28;20231;-72
2021/08/04 09:27:47;;;;;;;2.38;2.17;;;;;;;23.14;56.51;100603.06;5022175;28;20298;-73
2021/08/04 09:30:15;;;;;;;3.67;2.15;;;;;;;23.17;57.75;100600.16;5021917;28;20215;-74
2021/08/04 09:32:42;;;;;;;2.97;2.17;;;;;;;23.42;59.36;100588.41;5024814;28;20306;-72
2021/08/04 09:35:11;;;;;;;2.45;2.25;;;;;;;23.05;55.75;100598.47;5023761;28;20243;-74
2021/08/04 09:37:39;;;;;;;2.20;2.00;;;;;;;23.09;58.86;100591.13;5021417;28;20212;-72
2021/08/04 09:40:07;;;;;;;4.75;2.00;;;;;;;23.11;58.04;100589.16;5022957;28;20472;-74
2021/08/04 09:42:41;;;;;;;2.50;2.30;;;;;;;22.83;59.33;100591.31;5022089;28;20559;-74
2021/08/04 09:45:09;;;;;;;2.30;2.10;;;;;;;22.49;60.87;100583.31;5025386;28;20318;-74
2021/08/04 09:47:35;;;;;;;3.00;2.80;;;;;;;22.35;64.37;100572.91;5010263;28;20204;-73
2021/08/04 09:50:05;;;;;;;3.20;2.90;;;;;;;21.89;64.51;100578.03;5029024;28;20605;-74
2021/08/04 09:52:31;;;;;;;3.88;3.28;;;;;;;21.79;64.98;100576.19;5026651;28;20227;-72
2021/08/04 09:55:13;;;;;;;3.78;3.45;;;;;;;21.64;67.66;100563.09;5029809;28;20600;-73
2021/08/04 09:57:40;;;;;;;3.65;3.22;;;;;;;21.60;67.35;100568.72;5034261;28;20238;-73
2021/08/04 10:00:09;;;;;;;4.53;4.13;;;;;;;21.46;67.08;100575.91;5027118;28;20303;-73
2021/08/04 10:02:36;;;;;;;4.40;4.00;;;;;;;21.43;67.61;100568.13;5030311;28;20228;-73
2021/08/04 10:05:29;;;;;;;4.03;3.45;;;;;;;21.52;67.72;100567.47;5025962;28;20640;-73
2021/08/04 10:08:07;;;;;;;3.85;3.55;;;;;;;21.29;65.84;100565.63;4982498;28;20574;-74
2021/08/04 10:10:36;;;;;;;4.00;3.63;;;;;;;21.24;65.94;100565.94;5029729;28;20196;-74
2021/08/04 10:13:04;;;;;;;3.60;3.30;;;;;;;21.35;65.58;100571.34;5027545;28;20251;-73
2021/08/04 10:15:33;;;;;;;3.75;3.28;;;;;;;21.55;65.19;100559.31;5028095;28;20199;-72
2021/08/04 10:18:02;;;;;;;3.92;3.60;;;;;;;21.67;64.56;100557.56;5028196;28;20209;-72
2021/08/04 10:20:30;;;;;;;3.35;3.05;;;;;;;21.96;64.41;100565.16;5030058;28;20204;-73
2021/08/04 10:22:57;;;;;;;4.13;3.58;;;;;;;22.23;63.79;100564.03;5026343;28;20216;-73
2021/08/04 10:25:23;;;;;;;3.60;3.30;;;;;;;22.33;62.27;100569.53;5007512;28;20578;-73
2021/08/04 10:27:51;;;;;;;3.67;3.03;;;;;;;22.45;61.84;100568.59;5022448;28;20200;-72
2021/08/04 10:30:18;;;;;;;3.38;3.08;;;;;;;22.55;61.91;100572.22;5016469;28;20212;-73
2021/08/04 10:32:44;;;;;;;3.25;2.95;;;;;;;22.81;60.71;100570.19;5021310;28;20223;-72
2021/08/04 10:35:11;;;;;;;3.33;3.03;;;;;;;23.04;60.68;100570.16;5025064;28;20270;-72
2021/08/04 10:37:40;;;;;;;3.60;3.30;;;;;;;23.33;58.90;100578.50;5001536;28;20204;-73
2021/08/04 10:40:09;;;;;;;3.42;2.90;;;;;;;23.12;58.22;100580.25;5019018;28;20287;-73
2021/08/04 10:42:40;;;;;;;3.28;2.97;;;;;;;23.08;58.73;100570.78;5020958;28;20262;-73
2021/08/04 10:45:30;;;;;;;2.88;2.63;;;;;;;23.04;58.45;100570.16;5020524;28;20310;-73
2021/08/04 10:48:18;;;;;;;2.90;2.70;;;;;;;23.01;58.22;100575.75;5024354;28;20196;-73
2021/08/04 10:51:12;;;;;;;3.47;2.70;;;;;;;23.20;57.18;100570.69;5020853;28;20226;-73
2021/08/04 10:54:16;;;;;;;2.53;2.33;;;;;;;23.25;60.52;100562.31;5016787;28;20203;-73
2021/08/04 10:57:16;;;;;;;2.60;2.40;;;;;;;23.19;55.71;100568.13;5024054;28;20570;-73
2021/08/04 10:59:43;;;;;;;3.10;2.58;;;;;;;23.12;57.30;100566.94;4943432;28;20211;-72
2021/08/04 11:02:30;;;;;;;3.22;2.47;;;;;;;23.08;59.08;100562.81;4931836;29;20234;-72
2021/08/04 11:04:58;;;;;;;3.53;3.13;;;;;;;23.25;58.52;100559.66;4992426;28;20235;-72
2021/08/04 11:07:25;;;;;;;2.75;2.55;;;;;;;23.41;59.86;100556.59;5006340;28;20235;-72
2021/08/04 11:10:00;;;;;;;2.67;2.47;;;;;;;23.49;58.30;100559.50;5008002;28;20262;-73
2021/08/04 11:12:44;;;;;;;3.47;2.60;;;;;;;23.52;56.05;100558.41;5021519;28;20227;-72
2021/08/04 11:15:23;;;;;;;2.92;2.28;;;;;;;23.61;56.09;100563.81;5027994;28;20199;-72
2021/08/04 11:18:07;;;;;;;2.60;2.40;;;;;;;23.44;54.95;100567.00;5024064;28;20298;-72
2021/08/04 11:20:35;;;;;;;2.55;2.22;;;;;;;23.50;55.84;100561.19;5026687;28;20192;-72
2021/08/04 11:23:03;;;;;;;2.38;2.17;;;;;;;23.66;55.54;100565.22;5023101;28;20223;-73
2021/08/04 11:25:35;;;;;;;3.40;2.20;;;;;;;23.77;55.03;100555.41;5023514;28;20219;-73
2021/08/04 11:28:15;;;;;;;3.25;2.42;;;;;;;23.76;57.07;100556.38;5022085;28;20220;-73
2021/08/04 11:30:45;;;;;;;2.25;2.10;;;;;;;23.96;56.50;100545.94;5021129;28;20216;-73
2021/08/04 11:33:33;;;;;;;3.30;2.55;;;;;;;23.81;56.86;100545.38;5017513;28;20716;-72
2021/08/04 11:36:06;;;;;;;3.15;2.85;;;;;;;23.84;58.44;100546.94;5024483;28;20215;-73
2021/08/04 11:38:39;;;;;;;2.42;2.22;;;;;;;23.68;53.66;100553.50;5017170;28;20212;-72
2021/08/04 11:41:21;;;;;;;2.60;2.40;;;;;;;23.59;54.08;100556.94;5026209;28;20724;-73
2021/08/04 11:43:48;;;;;;;2.50;2.30;;;;;;;23.48;54.41;100552.47;5017905;28;20206;-72
2021/08/04 11:46:35;;;;;;;2.20;2.00;;;;;;;23.37;53.90;100560.50;5025997;28;20203;-73
2021/08/04 11:49:05;;;;;;;3.00;2.70;;;;;;;23.16;54.63;100547.94;5007194;28;20211;-72
2021/08/04 11:51:34;;;;;;;2.63;2.42;;;;;;;23.07;55.70;100548.69;5017650;28;20604;-74
2021/08/04 11:54:02;;;;;;;3.90;2.67;;;;;;;22.88;55.91;100551.94;5020365;28;20571;-73